Time;durP1;ratioP1;P1;durP2;ratioP2;P2;SDS_P1;SDS_P2;PMS_P1;PMS_P2;Temp;Humidity;BMP_temperature;BMP_pressure;BME280_temperature;BME280_humidity;BME280_pressure;Samples;Min_cycle;Max_cycle;Signal;HPM_P1;HPM_P2
2023/04/08 00:01:12;;;;;;;4.83;1.93;;;7.40;99.90;;;;;;5072998;28;20473;-80
2023/04/08 00:03:39;;;;;;;1.50;0.63;;;7.40;99.90;;;;;;5073073;28;20450;-80
2023/04/08 00:06:07;;;;;;;3.43;2.33;;;7.40;99.90;;;;;;5073060;28;20445;-80
2023/04/08 00:08:33;;;;;;;1.50;1.33;;;7.40;99.90;;;;;;5072689;28;20537;-80
2023/04/08 00:11:01;;;;;;;3.43;1.90;;;7.40;99.90;;;;;;5072639;28;20918;-80
2023/04/08 00:13:28;;;;;;;4.80;2.10;;;7.40;99.90;;;;;;5072991;28;20450;-80
2023/04/08 00:15:55;;;;;;;3.80;2.03;;;7.40;99.90;;;;;;5072665;28;20799;-80
2023/04/08 00:18:22;;;;;;;5.00;2.63;;;7.50;99.90;;;;;;5072859;28;20482;-80
2023/04/08 00:20:48;;;;;;;2.83;1.40;;;7.50;99.90;;;;;;5072857;28;20489;-80
2023/04/08 00:23:15;;;;;;;1.60;1.10;;;7.60;99.90;;;;;;5072870;28;20445;-79
2023/04/08 00:25:42;;;;;;;2.67;1.27;;;7.60;99.90;;;;;;5072924;28;20446;-80
2023/04/08 00:28:10;;;;;;;1.13;1.03;;;7.60;99.90;;;;;;5072910;28;20442;-80
2023/04/08 00:30:37;;;;;;;3.10;1.30;;;7.60;99.90;;;;;;5072826;28;20465;-80
2023/04/08 00:33:04;;;;;;;6.30;1.73;;;7.70;99.90;;;;;;5072514;28;20936;-80
2023/04/08 00:35:30;;;;;;;1.53;1.43;;;7.70;99.90;;;;;;5072587;28;20438;-80
2023/04/08 00:37:57;;;;;;;2.50;0.90;;;7.70;99.90;;;;;;5072710;28;20488;-80
2023/04/08 00:40:24;;;;;;;5.60;2.23;;;7.70;99.90;;;;;;5072711;28;20474;-80
2023/04/08 00:42:51;;;;;;;3.50;1.43;;;7.70;99.90;;;;;;5072735;28;20450;-80
2023/04/08 00:45:19;;;;;;;3.23;1.37;;;7.70;99.90;;;;;;5075103;28;20442;-80
2023/04/08 00:47:51;;;;;;;7.07;2.67;;;7.70;99.90;;;;;;5076727;28;20512;-79
2023/04/08 00:50:18;;;;;;;1.63;0.77;;;7.70;99.90;;;;;;5079790;28;20465;-80
2023/04/08 00:52:45;;;;;;;8.30;2.27;;;7.70;99.90;;;;;;5080343;28;20524;-80
2023/04/08 00:55:11;;;;;;;2.20;1.33;;;7.70;99.90;;;;;;5076293;28;20460;-80
2023/04/08 00:57:38;;;;;;;3.20;1.90;;;7.70;99.90;;;;;;5075782;28;20485;-80
2023/04/08 01:00:06;;;;;;;2.17;1.33;;;7.70;99.90;;;;;;5076017;28;20476;-80
2023/04/08 01:02:42;;;;;;;3.47;1.60;;;7.70;99.90;;;;;;5076036;28;20475;-80
2023/04/08 01:05:15;;;;;;;2.20;1.90;;;7.70;99.90;;;;;;5076080;28;20433;-80
2023/04/08 01:07:46;;;;;;;2.10;1.47;;;7.70;99.90;;;;;;5076003;28;20439;-80
2023/04/08 01:10:16;;;;;;;1.20;1.10;;;7.60;99.90;;;;;;5075888;28;20465;-80
2023/04/08 01:12:48;;;;;;;3.83;1.13;;;7.60;99.90;;;;;;5075848;28;20441;-80
2023/04/08 01:15:15;;;;;;;1.83;1.73;;;7.60;99.90;;;;;;5075876;28;20437;-80
2023/04/08 01:17:45;;;;;;;2.10;1.27;;;7.60;99.90;;;;;;5075758;28;20825;-80
2023/04/08 01:20:14;;;;;;;2.93;1.40;;;7.60;99.90;;;;;;5075557;28;20985;-80
2023/04/08 01:22:55;;;;;;;0.90;0.70;;;7.60;99.90;;;;;;5075721;28;20445;-80
2023/04/08 01:25:25;;;;;;;3.90;2.10;;;7.60;99.90;;;;;;5075699;28;20456;-81
2023/04/08 01:27:56;;;;;;;2.93;2.53;;;7.60;99.90;;;;;;5075639;28;20434;-80
2023/04/08 01:30:25;;;;;;;3.50;2.23;;;7.60;99.90;;;;;;5075462;28;20473;-80
2023/04/08 01:32:53;;;;;;;3.27;1.30;;;7.60;99.90;;;;;;5075214;28;20441;-80
2023/04/08 01:35:20;;;;;;;2.00;0.97;;;7.60;99.90;;;;;;5075420;28;20453;-80
2023/04/08 01:37:50;;;;;;;1.67;1.30;;;7.60;99.90;;;;;;5075364;28;20816;-80
2023/04/08 01:40:18;;;;;;;0.80;0.80;;;7.60;99.90;;;;;;5075298;28;20461;-80
2023/04/08 01:42:47;;;;;;;1.43;1.33;;;7.60;99.90;;;;;;5075298;28;20457;-80
2023/04/08 01:45:16;;;;;;;2.10;1.03;;;7.50;99.90;;;;;;5075299;28;20457;-80
2023/04/08 01:47:46;;;;;;;0.93;0.80;;;7.50;99.90;;;;;;5074752;28;20485;-80
2023/04/08 01:50:13;;;;;;;1.50;1.03;;;7.50;99.90;;;;;;5075166;28;20466;-80
2023/04/08 01:52:43;;;;;;;4.87;1.67;;;7.50;99.90;;;;;;5074802;28;20831;-80
2023/04/08 01:55:10;;;;;;;1.20;1.10;;;7.50;99.90;;;;;;5075044;28;20485;-80
2023/04/08 01:57:39;;;;;;;2.20;0.83;;;7.60;99.90;;;;;;5074902;28;20473;-80
2023/04/08 02:00:08;;;;;;;2.70;1.87;;;7.60;99.90;;;;;;5073915;28;20469;-80
2023/04/08 02:02:38;;;;;;;2.70;1.27;;;7.60;99.90;;;;;;5074681;28;20430;-80
2023/04/08 02:05:06;;;;;;;2.10;1.40;;;7.60;99.90;;;;;;5074903;28;20450;-80
2023/04/08 02:07:32;;;;;;;4.73;1.63;;;7.60;99.90;;;;;;5074840;28;20452;-80
2023/04/08 02:09:59;;;;;;;3.00;1.20;;;7.60;99.90;;;;;;5074714;28;20469;-80
2023/04/08 02:12:27;;;;;;;3.23;1.40;;;7.60;99.90;;;;;;5074379;28;20453;-80
2023/04/08 02:14:56;;;;;;;2.83;1.90;;;7.60;99.90;;;;;;5074653;28;20445;-80
2023/04/08 02:17:31;;;;;;;1.33;1.13;;;7.60;99.90;;;;;;5074580;28;20474;-80
2023/04/08 02:20:06;;;;;;;1.57;1.10;;;7.60;99.90;;;;;;5074266;28;21006;-80
2023/04/08 02:22:40;;;;;;;1.63;1.30;;;7.60;99.90;;;;;;5074574;28;20841;-80
2023/04/08 02:25:11;;;;;;;3.03;1.03;;;7.60;99.90;;;;;;5074475;28;20433;-80
2023/04/08 02:27:40;;;;;;;1.60;1.10;;;7.60;99.90;;;;;;5074474;28;20794;-80
2023/04/08 02:30:09;;;;;;;2.30;2.07;;;7.60;99.90;;;;;;5074331;28;20466;-80
2023/04/08 02:32:37;;;;;;;5.10;2.57;;;7.60;99.90;;;;;;5074329;28;20450;-80
2023/04/08 02:35:07;;;;;;;1.93;1.33;;;7.50;99.90;;;;;;5074249;28;20456;-80
2023/04/08 02:37:34;;;;;;;1.20;1.10;;;7.50;99.90;;;;;;5074137;28;20504;-80
2023/04/08 02:40:00;;;;;;;3.63;2.10;;;7.50;99.90;;;;;;5073812;28;20977;-80
2023/04/08 02:42:27;;;;;;;2.43;1.40;;;7.40;99.90;;;;;;5074110;28;20449;-80
2023/04/08 02:44:54;;;;;;;1.70;1.60;;;7.40;99.90;;;;;;5073799;28;20949;-80
2023/04/08 02:47:21;;;;;;;7.13;2.50;;;7.30;99.90;;;;;;5073500;28;20477;-80
2023/04/08 02:49:51;;;;;;;1.87;1.67;;;7.30;99.90;;;;;;5073596;28;20474;-80
2023/04/08 02:52:19;;;;;;;3.87;1.93;;;7.30;99.90;;;;;;5074647;28;20460;-80
2023/04/08 02:54:46;;;;;;;6.27;2.10;;;7.20;99.90;;;;;;5073860;28;20453;-82
2023/04/08 02:57:13;;;;;;;1.23;1.13;;;7.30;99.90;;;;;;5073766;28;20487;-82
2023/04/08 02:59:40;;;;;;;1.40;1.30;;;7.30;99.90;;;;;;5073790;28;20461;-82
2023/04/08 03:02:07;;;;;;;5.30;2.43;;;7.20;99.90;;;;;;5073766;28;20449;-80
2023/04/08 03:04:33;;;;;;;2.37;1.23;;;7.20;99.90;;;;;;5073757;28;20449;-80
2023/04/08 03:07:00;;;;;;;3.07;1.67;;;7.20;99.90;;;;;;5073734;28;20821;-80
2023/04/08 03:09:28;;;;;;;4.80;1.53;;;7.20;99.90;;;;;;5073267;28;20973;-80
2023/04/08 03:11:55;;;;;;;3.27;1.60;;;7.20;99.90;;;;;;5073098;28;20429;-80
2023/04/08 03:14:21;;;;;;;6.57;3.23;;;7.20;99.90;;;;;;5073666;28;20441;-80
2023/04/08 03:16:48;;;;;;;4.33;1.77;;;7.20;99.90;;;;;;5073572;28;20454;-80
2023/04/08 03:19:15;;;;;;;4.40;2.10;;;7.20;99.90;;;;;;5073446;28;20488;-80
2023/04/08 03:21:42;;;;;;;1.90;1.53;;;7.20;99.90;;;;;;5073588;28;20445;-80
2023/04/08 03:24:09;;;;;;;1.67;1.27;;;7.30;99.90;;;;;;5073470;28;20453;-80
2023/04/08 03:26:37;;;;;;;5.43;2.30;;;7.20;99.90;;;;;;5073511;28;20453;-80
2023/04/08 03:29:04;;;;;;;4.40;1.50;;;7.20;99.90;;;;;;5073102;28;20980;-80
2023/04/08 03:31:30;;;;;;;2.40;1.07;;;7.20;99.90;;;;;;5073661;28;20438;-80
2023/04/08 03:33:57;;;;;;;3.60;1.40;;;7.20;99.90;;;;;;5073073;28;20956;-80
2023/04/08 03:36:25;;;;;;;3.73;1.70;;;7.20;99.90;;;;;;5073320;28;20457;-80
2023/04/08 03:38:52;;;;;;;2.70;1.50;;;7.20;99.90;;;;;;5072974;28;20843;-80
2023/04/08 03:41:18;;;;;;;7.43;1.87;;;7.20;99.90;;;;;;5073260;28;20462;-80
2023/04/08 03:43:47;;;;;;;2.57;1.43;;;7.20;99.90;;;;;;5073295;28;20814;-80
2023/04/08 03:46:13;;;;;;;3.33;1.70;;;7.20;99.90;;;;;;5073041;28;20474;-80
2023/04/08 03:48:40;;;;;;;0.80;0.80;;;7.20;99.90;;;;;;5073283;28;20442;-80
2023/04/08 03:51:07;;;;;;;4.40;1.63;;;7.20;99.90;;;;;;5072866;28;21007;-80
2023/04/08 03:53:33;;;;;;;2.50;2.07;;;7.20;99.90;;;;;;5073212;28;20442;-80
2023/04/08 03:56:02;;;;;;;3.10;1.70;;;7.20;99.90;;;;;;5073194;28;20460;-80
2023/04/08 03:58:29;;;;;;;5.03;2.60;;;7.20;99.90;;;;;;5073008;28;20473;-80
2023/04/08 04:00:57;;;;;;;4.73;1.50;;;7.20;99.90;;;;;;5073105;28;20472;-80
2023/04/08 04:03:24;;;;;;;3.70;1.60;;;7.10;99.90;;;;;;5073102;28;20452;-80
2023/04/08 04:05:50;;;;;;;3.07;1.00;;;7.10;99.90;;;;;;5073173;28;20450;-80
2023/04/08 04:08:17;;;;;;;1.80;0.90;;;7.20;99.90;;;;;;5073127;28;20437;-80
2023/04/08 04:10:44;;;;;;;1.33;1.23;;;7.20;99.90;;;;;;5073095;28;20530;-80
2023/04/08 04:13:10;;;;;;;3.73;1.73;;;7.20;99.90;;;;;;5073045;28;20452;-80
2023/04/08 04:15:38;;;;;;;1.93;1.60;;;7.10;99.90;;;;;;5073152;28;20479;-80
2023/04/08 04:18:07;;;;;;;3.10;1.90;;;7.10;99.90;;;;;;5072976;28;20507;-80
2023/04/08 04:20:33;;;;;;;13.60;1.77;;;7.10;99.90;;;;;;5072964;28;20477;-80
2023/04/08 04:23:00;;;;;;;3.53;1.37;;;7.10;99.90;;;;;;5072986;28;20451;-80
2023/04/08 04:25:27;;;;;;;14.80;1.77;;;7.20;99.90;;;;;;5076606;28;20441;-80
2023/04/08 04:27:53;;;;;;;2.80;2.60;;;7.10;99.90;;;;;;5076442;28;20983;-80
2023/04/08 04:30:20;;;;;;;1.73;1.53;;;7.10;99.90;;;;;;5076621;28;20874;-80
2023/04/08 04:32:47;;;;;;;7.33;2.77;;;7.10;99.90;;;;;;5076620;28;20445;-80
2023/04/08 04:35:15;;;;;;;0.60;0.60;;;7.10;99.90;;;;;;5076607;28;20457;-80
2023/04/08 04:37:42;;;;;;;2.53;1.23;;;7.10;99.90;;;;;;5076511;28;20499;-80
2023/04/08 04:40:09;;;;;;;1.00;1.00;;;7.10;99.90;;;;;;5076142;28;20464;-80
2023/04/08 04:42:35;;;;;;;5.33;2.10;;;7.10;99.90;;;;;;5076450;28;20540;-80
2023/04/08 04:45:02;;;;;;;4.73;1.60;;;7.10;99.90;;;;;;5076399;28;20452;-80
2023/04/08 04:47:31;;;;;;;2.23;1.00;;;7.10;99.90;;;;;;5075900;28;20580;-80
2023/04/08 04:49:58;;;;;;;3.30;1.60;;;7.10;99.90;;;;;;5076269;28;20465;-80
2023/04/08 04:52:26;;;;;;;3.60;1.60;;;7.10;99.90;;;;;;5076262;28;20458;-80
2023/04/08 04:54:52;;;;;;;1.70;1.00;;;7.10;99.90;;;;;;5075909;28;20855;-80
2023/04/08 04:57:19;;;;;;;2.20;1.57;;;7.10;99.90;;;;;;5076216;28;20524;-80
2023/04/08 04:59:46;;;;;;;5.90;1.40;;;7.10;99.90;;;;;;5076021;28;20493;-80
2023/04/08 05:02:12;;;;;;;3.53;1.30;;;7.10;99.90;;;;;;5076127;28;20456;-81
2023/04/08 05:04:39;;;;;;;2.30;1.70;;;7.10;99.90;;;;;;5076042;28;20499;-81
2023/04/08 05:07:05;;;;;;;2.33;0.90;;;7.10;99.90;;;;;;5075723;28;20959;-81
2023/04/08 05:09:34;;;;;;;1.73;1.37;;;7.10;99.90;;;;;;5075931;28;20855;-81
2023/04/08 05:12:00;;;;;;;2.70;1.23;;;7.10;99.90;;;;;;5075643;28;21025;-81
2023/04/08 05:14:29;;;;;;;3.37;1.20;;;7.20;99.90;;;;;;5075863;28;20454;-81
2023/04/08 05:16:56;;;;;;;3.60;1.43;;;7.20;99.90;;;;;;5076158;28;20818;-81
2023/04/08 05:19:22;;;;;;;2.77;1.47;;;7.20;99.90;;;;;;5075678;28;20583;-81
2023/04/08 05:21:49;;;;;;;2.63;1.57;;;7.20;99.90;;;;;;5075754;28;20445;-81
2023/04/08 05:24:16;;;;;;;5.90;2.07;;;7.20;99.90;;;;;;5075659;28;20511;-81
2023/04/08 05:26:44;;;;;;;1.57;1.03;;;7.20;99.90;;;;;;5075361;28;20510;-81
2023/04/08 05:29:11;;;;;;;1.60;1.50;;;7.30;99.90;;;;;;5075538;28;20485;-81
2023/04/08 05:31:37;;;;;;;2.90;1.70;;;7.30;99.90;;;;;;5075581;28;20828;-81
2023/04/08 05:34:04;;;;;;;1.33;1.20;;;7.40;99.90;;;;;;5075420;28;20461;-81
2023/04/08 05:36:31;;;;;;;2.60;1.73;;;7.40;99.90;;;;;;5075083;28;20448;-81
2023/04/08 05:38:58;;;;;;;2.03;1.00;;;7.40;99.90;;;;;;5075282;28;20564;-81
2023/04/08 05:41:24;;;;;;;2.33;1.23;;;7.50;99.90;;;;;;5075382;28;20457;-81
2023/04/08 05:43:52;;;;;;;3.53;1.93;;;7.50;99.90;;;;;;5075851;28;20450;-81
2023/04/08 05:46:19;;;;;;;5.60;1.73;;;7.50;99.90;;;;;;5074914;28;20539;-81
2023/04/08 05:48:46;;;;;;;1.73;1.27;;;7.60;99.90;;;;;;5075256;28;20442;-81
2023/04/08 05:51:16;;;;;;;3.60;1.67;;;7.70;99.90;;;;;;5075128;28;20469;-81
2023/04/08 05:53:45;;;;;;;2.73;1.60;;;7.60;99.90;;;;;;5074809;28;20882;-81
2023/04/08 05:56:11;;;;;;;5.03;1.77;;;7.70;99.90;;;;;;5075065;28;20460;-81
2023/04/08 05:58:38;;;;;;;4.93;2.70;;;7.70;99.90;;;;;;5074949;28;20489;-81
2023/04/08 06:01:06;;;;;;;3.53;1.43;;;7.80;99.90;;;;;;5074937;28;20473;-81
2023/04/08 06:03:33;;;;;;;5.13;1.47;;;7.90;99.90;;;;;;5074999;28;20454;-81
2023/04/08 06:05:59;;;;;;;1.30;1.20;;;8.00;99.90;;;;;;5074933;28;20503;-81
2023/04/08 06:08:26;;;;;;;4.10;2.37;;;8.10;99.90;;;;;;5074595;28;20468;-81
2023/04/08 06:10:53;;;;;;;3.50;1.90;;;8.20;99.90;;;;;;5074777;28;20501;-81
2023/04/08 06:13:20;;;;;;;9.30;2.73;;;8.40;99.90;;;;;;5074724;28;20445;-81
2023/04/08 06:15:48;;;;;;;4.40;2.00;;;8.50;99.90;;;;;;5074723;28;20449;-81
2023/04/08 06:18:16;;;;;;;6.13;2.50;;;8.60;99.90;;;;;;5074253;28;20976;-81
2023/04/08 06:20:43;;;;;;;4.57;1.90;;;8.50;99.90;;;;;;5074276;28;20953;-80
2023/04/08 06:23:10;;;;;;;3.07;1.23;;;8.50;99.90;;;;;;5074557;28;20440;-80
2023/04/08 06:25:36;;;;;;;4.17;2.07;;;8.50;99.90;;;;;;5074493;28;20473;-80
2023/04/08 06:28:03;;;;;;;3.33;1.67;;;8.50;99.90;;;;;;5074140;28;20944;-80
2023/04/08 06:30:30;;;;;;;4.87;2.43;;;8.40;99.90;;;;;;5074313;28;20465;-80
2023/04/08 06:32:57;;;;;;;4.80;2.50;;;8.50;99.90;;;;;;5074311;28;20450;-80
2023/04/08 06:35:25;;;;;;;1.90;1.03;;;8.60;99.90;;;;;;5074339;28;20487;-80
2023/04/08 06:37:51;;;;;;;2.03;1.30;;;8.60;99.90;;;;;;5074236;28;20447;-80
2023/04/08 06:40:18;;;;;;;2.40;1.60;;;8.50;99.90;;;;;;5073758;28;20492;-80
2023/04/08 06:42:45;;;;;;;2.50;1.13;;;8.60;99.90;;;;;;5074138;28;20445;-80
2023/04/08 06:45:12;;;;;;;1.87;1.03;;;8.60;99.90;;;;;;5074134;28;20453;-80
2023/04/08 06:47:38;;;;;;;2.63;1.13;;;8.60;99.90;;;;;;5073037;28;20480;-80
2023/04/08 06:50:06;;;;;;;2.60;1.63;;;8.50;99.90;;;;;;5073970;28;20465;-80
2023/04/08 06:52:34;;;;;;;1.43;1.33;;;8.60;99.90;;;;;;5074053;28;20484;-80
2023/04/08 06:55:01;;;;;;;2.93;1.50;;;8.60;99.90;;;;;;5073978;28;20445;-80
2023/04/08 06:57:27;;;;;;;1.07;0.90;;;8.60;99.90;;;;;;5073905;28;20452;-80
2023/04/08 06:59:54;;;;;;;1.60;1.23;;;8.60;99.90;;;;;;5073748;28;20492;-80
2023/04/08 07:02:22;;;;;;;3.83;2.53;;;8.70;99.90;;;;;;5073480;28;20460;-80
2023/04/08 07:04:48;;;;;;;2.53;1.23;;;8.90;99.90;;;;;;5073466;28;20552;-80
2023/04/08 07:07:15;;;;;;;4.57;1.80;;;9.00;99.90;;;;;;5073721;28;20454;-80
2023/04/08 07:09:44;;;;;;;1.23;1.23;;;9.10;99.90;;;;;;5073327;28;20466;-80
2023/04/08 07:12:11;;;;;;;3.37;1.20;;;9.30;99.90;;;;;;5073687;28;20453;-80
2023/04/08 07:14:38;;;;;;;2.27;1.47;;;9.50;99.90;;;;;;5073329;28;20457;-80
2023/04/08 07:17:04;;;;;;;2.03;1.40;;;9.60;99.90;;;;;;5073648;28;20846;-80
2023/04/08 07:19:31;;;;;;;3.00;1.43;;;9.70;99.90;;;;;;5073370;28;20488;-80
2023/04/08 07:21:58;;;;;;;0.87;0.87;;;9.70;99.90;;;;;;5073522;28;20460;-80
2023/04/08 07:24:25;;;;;;;2.93;1.13;;;9.70;99.90;;;;;;5073406;28;20430;-80
2023/04/08 07:26:54;;;;;;;3.07;1.47;;;9.60;99.90;;;;;;5073491;28;20485;-80
2023/04/08 07:29:20;;;;;;;4.63;2.00;;;9.60;99.90;;;;;;5073314;28;20505;-80
2023/04/08 07:31:47;;;;;;;1.20;0.80;;;9.50;99.90;;;;;;5073873;28;20477;-80
2023/04/08 07:34:14;;;;;;;1.93;1.30;;;9.50;99.90;;;;;;5073333;28;20441;-80
2023/04/08 07:36:40;;;;;;;3.40;1.70;;;9.50;99.90;;;;;;5073323;28;20454;-80
2023/04/08 07:39:07;;;;;;;2.53;1.30;;;9.30;99.90;;;;;;5072889;28;20477;-81
2023/04/08 07:41:34;;;;;;;0.73;0.73;;;9.20;99.90;;;;;;5073007;28;20945;-80
2023/04/08 07:44:02;;;;;;;2.60;1.90;;;9.20;99.90;;;;;;5073320;28;20547;-80
2023/04/08 07:46:30;;;;;;;4.50;1.70;;;9.10;99.90;;;;;;5072943;28;20526;-80
2023/04/08 07:48:57;;;;;;;1.17;0.93;;;9.00;99.90;;;;;;5073131;28;20859;-80
2023/04/08 07:51:23;;;;;;;2.30;1.37;;;9.00;99.90;;;;;;5073215;28;20504;-80
2023/04/08 07:53:50;;;;;;;2.30;1.07;;;9.00;99.90;;;;;;5072858;28;20457;-80
2023/04/08 07:56:18;;;;;;;2.03;1.10;;;9.00;99.90;;;;;;5072916;28;20453;-80
2023/04/08 07:58:44;;;;;;;2.73;1.40;;;9.10;99.90;;;;;;5073731;28;20449;-80
2023/04/08 08:01:20;;;;;;;3.20;1.30;;;9.20;99.90;;;;;;5076933;28;20961;-81
2023/04/08 08:03:47;;;;;;;3.10;1.30;;;9.30;99.90;;;;;;5077274;28;20448;-82
2023/04/08 08:06:14;;;;;;;0.93;0.83;;;9.40;99.90;;;;;;5077797;28;20426;-81
2023/04/08 08:08:40;;;;;;;1.60;1.13;;;9.40;99.90;;;;;;5077146;28;20460;-82
2023/04/08 08:11:07;;;;;;;1.83;1.13;;;9.50;99.90;;;;;;5076758;28;20995;-82
2023/04/08 08:13:34;;;;;;;1.43;1.33;;;9.60;99.90;;;;;;5077031;28;20453;-82
2023/04/08 08:16:01;;;;;;;2.80;1.00;;;9.70;99.90;;;;;;5077062;28;20440;-82
2023/04/08 08:18:29;;;;;;;1.17;0.90;;;9.90;99.90;;;;;;5076753;28;20421;-81
2023/04/08 08:20:55;;;;;;;2.83;1.10;;;9.90;99.90;;;;;;5076824;28;20494;-82
2023/04/08 08:23:22;;;;;;;2.23;1.63;;;10.00;99.90;;;;;;5076872;28;20475;-82
2023/04/08 08:25:49;;;;;;;2.73;1.37;;;10.10;99.90;;;;;;5076618;28;20932;-82
2023/04/08 08:28:15;;;;;;;4.10;1.77;;;10.30;99.90;;;;;;5076739;28;20450;-82
2023/04/08 08:30:42;;;;;;;1.80;1.23;;;10.40;99.90;;;;;;5076620;28;20461;-82
2023/04/08 08:33:09;;;;;;;1.63;1.30;;;10.50;99.90;;;;;;5076736;28;20444;-82
2023/04/08 08:35:37;;;;;;;1.53;1.43;;;10.60;99.90;;;;;;5076359;28;20479;-82
2023/04/08 08:38:04;;;;;;;2.93;2.03;;;10.80;99.90;;;;;;5076251;28;20455;-82
2023/04/08 08:40:32;;;;;;;4.33;1.90;;;10.90;99.90;;;;;;5076313;28;20495;-82
2023/04/08 08:43:00;;;;;;;3.27;1.73;;;11.00;99.90;;;;;;5076155;28;20444;-82
2023/04/08 08:45:27;;;;;;;2.97;2.00;;;11.10;99.90;;;;;;5076184;28;20457;-82
2023/04/08 08:47:53;;;;;;;2.10;1.47;;;11.20;99.90;;;;;;5076404;28;20430;-82
2023/04/08 08:50:20;;;;;;;4.47;2.23;;;11.20;99.90;;;;;;5076269;28;20465;-82
2023/04/08 08:52:52;;;;;;;2.43;1.90;;;11.30;99.90;;;;;;5075971;28;20932;-82
2023/04/08 08:55:20;;;;;;;2.30;1.80;;;11.30;99.90;;;;;;5075966;28;20452;-82
2023/04/08 08:57:48;;;;;;;3.33;1.97;;;11.40;99.90;;;;;;5076233;28;20457;-82
2023/04/08 09:00:15;;;;;;;3.47;1.73;;;11.40;99.90;;;;;;5075751;28;20481;-82
2023/04/08 09:02:42;;;;;;;3.17;2.00;;;11.40;99.90;;;;;;5076130;28;20441;-83
2023/04/08 09:05:09;;;;;;;5.33;2.40;;;11.50;99.90;;;;;;5076042;28;20449;-82
2023/04/08 09:07:39;;;;;;;4.33;2.10;;;11.60;99.90;;;;;;5076039;28;20445;-82
2023/04/08 09:10:09;;;;;;;2.03;1.90;;;11.70;99.90;;;;;;5075243;28;20556;-82
2023/04/08 09:12:42;;;;;;;3.27;2.53;;;11.90;99.90;;;;;;5075655;28;20437;-83
2023/04/08 09:15:10;;;;;;;2.60;1.90;;;12.10;99.90;;;;;;5075946;28;20426;-82
2023/04/08 09:17:40;;;;;;;3.90;2.10;;;12.30;99.90;;;;;;5075872;28;20472;-82
2023/04/08 09:20:10;;;;;;;4.33;2.50;;;12.50;99.90;;;;;;5075630;28;20491;-83
2023/04/08 09:22:56;;;;;;;3.67;2.60;;;12.60;99.90;;;;;;5075793;28;20525;-83
2023/04/08 09:25:25;;;;;;;4.80;2.23;;;12.80;99.90;;;;;;5075746;28;20550;-83
2023/04/08 09:27:52;;;;;;;8.50;3.40;;;13.20;99.90;;;;;;5075668;28;20445;-82
2023/04/08 09:30:20;;;;;;;5.57;2.40;;;13.90;99.90;;;;;;5075562;28;20523;-83
2023/04/08 09:32:48;;;;;;;7.57;3.20;;;14.70;99.90;;;;;;5075528;28;20456;-83
2023/04/08 09:35:16;;;;;;;7.40;2.70;;;15.50;99.90;;;;;;5075558;28;20472;-83
2023/04/08 09:37:42;;;;;;;16.70;2.30;;;16.20;99.90;;;;;;5075483;28;20453;-83
2023/04/08 09:40:10;;;;;;;5.70;3.43;;;16.70;99.90;;;;;;5075183;28;20481;-83
2023/04/08 09:42:43;;;;;;;7.13;3.40;;;17.10;99.90;;;;;;5075379;28;20437;-83
2023/04/08 09:45:11;;;;;;;4.67;2.20;;;17.40;99.90;;;;;;5075481;28;20430;-81
2023/04/08 09:47:47;;;;;;;4.27;3.20;;;17.40;99.90;;;;;;5073498;28;20504;-82
2023/04/08 09:50:18;;;;;;;4.80;3.47;;;17.30;99.90;;;;;;5074887;28;20830;-81
2023/04/08 09:52:49;;;;;;;6.90;3.13;;;16.90;99.90;;;;;;5075370;28;20491;-81
2023/04/08 09:55:21;;;;;;;6.00;3.30;;;16.50;99.90;;;;;;5074828;28;20935;-82
2023/04/08 09:57:55;;;;;;;4.90;3.60;;;16.40;99.90;;;;;;5075213;28;20430;-82
2023/04/08 10:00:28;;;;;;;6.67;3.30;;;16.10;99.90;;;;;;5074951;28;20489;-82
2023/04/08 10:02:56;;;;;;;4.77;3.73;;;16.00;99.90;;;;;;5074738;28;20789;-82
2023/04/08 10:05:24;;;;;;;5.30;2.50;;;15.90;99.90;;;;;;5074878;28;20532;-82
2023/04/08 10:07:51;;;;;;;5.03;3.20;;;15.90;99.90;;;;;;5074884;28;20449;-82
2023/04/08 10:10:19;;;;;;;3.60;2.63;;;15.90;99.90;;;;;;5074734;28;20465;-82
2023/04/08 10:12:46;;;;;;;6.40;3.23;;;15.70;99.90;;;;;;5074849;28;20941;-83
2023/04/08 10:15:25;;;;;;;5.43;3.93;;;15.50;99.90;;;;;;5074734;28;20446;-82
2023/04/08 10:17:53;;;;;;;4.13;2.80;;;15.40;99.90;;;;;;5074704;28;20449;-82
2023/04/08 10:20:43;;;;;;;5.63;4.00;;;15.50;99.90;;;;;;5074466;28;20488;-82
2023/04/08 10:23:12;;;;;;;4.90;3.23;;;15.60;99.90;;;;;;5074170;28;20438;-82
2023/04/08 10:25:40;;;;;;;3.37;2.53;;;15.60;99.90;;;;;;5074608;28;20446;-82
2023/04/08 10:28:25;;;;;;;4.17;3.57;;;15.60;99.90;;;;;;5074473;28;20485;-82
2023/04/08 10:30:54;;;;;;;9.33;3.30;;;15.40;99.90;;;;;;5074360;28;20476;-82
2023/04/08 10:33:24;;;;;;;6.23;3.97;;;15.30;99.90;;;;;;5074045;28;20445;-82
2023/04/08 10:35:54;;;;;;;7.80;3.50;;;15.10;99.90;;;;;;5074007;28;20933;-82
2023/04/08 10:38:21;;;;;;;4.87;3.07;;;15.00;99.90;;;;;;5074304;28;20437;-82
2023/04/08 10:40:50;;;;;;;3.90;3.17;;;14.90;99.90;;;;;;5074031;28;20579;-81
2023/04/08 10:43:17;;;;;;;5.00;3.50;;;14.90;99.90;;;;;;5074273;28;20807;-82
2023/04/08 10:45:45;;;;;;;6.03;3.40;;;15.00;99.90;;;;;;5073926;28;20515;-82
2023/04/08 10:48:15;;;;;;;5.87;2.63;;;15.10;99.90;;;;;;5073906;28;20468;-82
2023/04/08 10:50:42;;;;;;;4.60;3.13;;;15.00;99.90;;;;;;5073990;28;20461;-82
2023/04/08 10:53:10;;;;;;;7.83;4.10;;;14.90;99.90;;;;;;5074078;28;20425;-82
2023/04/08 10:55:36;;;;;;;5.83;3.57;;;14.70;99.90;;;;;;5073649;28;20492;-82
2023/04/08 10:58:07;;;;;;;4.77;3.37;;;14.60;99.90;;;;;;5073895;28;20485;-79
2023/04/08 11:00:36;;;;;;;4.90;3.17;;;14.30;99.90;;;;;;5073737;28;20489;-82
2023/04/08 11:03:04;;;;;;;3.87;3.30;;;14.00;99.90;;;;;;5073518;28;21007;-82
2023/04/08 11:05:32;;;;;;;7.13;3.90;;;13.90;99.90;;;;;;5073790;28;20449;-82
2023/04/08 11:07:58;;;;;;;12.63;4.17;;;13.70;99.90;;;;;;5073723;28;20441;-82
2023/04/08 11:10:25;;;;;;;4.90;4.37;;;13.60;99.90;;;;;;5073643;28;20860;-82
2023/04/08 11:12:54;;;;;;;3.07;2.80;;;13.40;99.90;;;;;;5073666;28;20507;-82
2023/04/08 11:15:21;;;;;;;5.43;3.30;;;13.20;99.90;;;;;;5073688;28;20449;-82
2023/04/08 11:17:48;;;;;;;9.47;3.23;;;13.00;99.90;;;;;;5073552;28;20537;-81
2023/04/08 11:20:15;;;;;;;4.27;2.80;;;12.90;99.90;;;;;;5073481;28;20848;-82
2023/04/08 11:22:44;;;;;;;8.40;4.97;;;12.80;99.90;;;;;;5073284;28;20450;-82
2023/04/08 11:25:11;;;;;;;5.67;3.20;;;12.60;99.90;;;;;;5073569;28;20796;-82
2023/04/08 11:27:39;;;;;;;7.20;3.57;;;12.50;99.90;;;;;;5073174;28;20459;-82
2023/04/08 11:30:07;;;;;;;9.50;3.30;;;12.40;99.90;;;;;;5073443;28;20491;-82
2023/04/08 11:32:35;;;;;;;4.03;3.40;;;12.30;99.90;;;;;;5073225;28;20445;-82
2023/04/08 11:35:04;;;;;;;5.90;3.20;;;12.20;99.90;;;;;;5073474;28;20445;-82
2023/04/08 11:37:38;;;;;;;3.37;2.97;;;12.10;99.90;;;;;;5073524;28;20434;-81
2023/04/08 11:40:09;;;;;;;4.20;2.87;;;12.00;99.90;;;;;;5073001;28;20501;-82
2023/04/08 11:42:36;;;;;;;2.70;1.90;;;11.90;99.90;;;;;;5073340;28;20779;-82
2023/04/08 11:45:10;;;;;;;4.10;2.60;;;11.90;99.90;;;;;;5073431;28;20441;-81
2023/04/08 11:47:37;;;;;;;3.97;3.00;;;11.90;99.90;;;;;;5072911;28;20500;-82
2023/04/08 11:50:06;;;;;;;8.30;4.20;;;11.90;99.90;;;;;;5074225;28;20908;-83
2023/04/08 11:52:46;;;;;;;4.07;2.97;;;11.90;99.90;;;;;;5073439;28;20433;-82
2023/04/08 11:55:23;;;;;;;4.73;3.50;;;11.90;99.90;;;;;;5073219;28;20991;-82
2023/04/08 11:57:51;;;;;;;3.80;2.37;;;11.90;99.90;;;;;;5073248;28;20437;-82
2023/04/08 12:00:18;;;;;;;5.70;3.90;;;11.90;99.90;;;;;;5072708;28;20477;-82
2023/04/08 12:02:45;;;;;;;4.33;3.07;;;12.00;99.90;;;;;;5072869;28;21031;-82
2023/04/08 12:05:12;;;;;;;7.20;3.47;;;12.10;99.90;;;;;;5073194;28;20502;-82
2023/04/08 12:07:39;;;;;;;2.93;2.53;;;12.00;99.90;;;;;;5073143;28;20460;-82
2023/04/08 12:10:07;;;;;;;4.17;3.07;;;12.00;99.90;;;;;;5073657;28;21007;-82
2023/04/08 12:12:35;;;;;;;5.90;3.57;;;12.00;99.90;;;;;;5073481;28;20449;-82
2023/04/08 12:15:02;;;;;;;5.77;3.30;;;12.10;99.90;;;;;;5073185;28;20504;-82
2023/04/08 12:17:29;;;;;;;3.00;2.37;;;12.10;99.90;;;;;;5073040;28;20518;-82
2023/04/08 12:19:56;;;;;;;6.70;3.20;;;12.10;99.90;;;;;;5072946;28;20474;-82
2023/04/08 12:22:22;;;;;;;6.07;3.33;;;12.20;99.90;;;;;;5072902;28;20534;-82
2023/04/08 12:24:49;;;;;;;7.40;4.70;;;12.30;99.90;;;;;;5072604;28;20457;-82
2023/04/08 12:27:16;;;;;;;6.83;3.57;;;12.20;99.90;;;;;;5072869;28;20529;-83
2023/04/08 12:29:45;;;;;;;4.57;2.90;;;12.20;99.90;;;;;;5072880;28;20829;-82
2023/04/08 12:32:12;;;;;;;4.10;2.23;;;12.20;99.90;;;;;;5072812;28;20433;-82
2023/04/08 12:34:39;;;;;;;7.53;3.60;;;12.20;99.90;;;;;;5072816;28;20449;-82
2023/04/08 12:37:05;;;;;;;4.10;2.40;;;12.20;99.90;;;;;;5072514;28;20453;-82
2023/04/08 12:39:32;;;;;;;7.50;3.90;;;12.30;99.90;;;;;;5072703;28;20885;-83
2023/04/08 12:41:59;;;;;;;2.43;2.17;;;12.40;99.90;;;;;;5072714;28;20485;-82
2023/04/08 12:44:26;;;;;;;4.20;3.40;;;12.50;99.90;;;;;;5073221;28;20483;-82
2023/04/08 12:46:54;;;;;;;5.30;3.30;;;12.50;99.90;;;;;;5076043;28;20477;-81
2023/04/08 12:49:21;;;;;;;2.83;2.50;;;12.40;99.90;;;;;;5076328;28;20575;-81
2023/04/08 12:51:48;;;;;;;5.27;3.27;;;12.20;99.90;;;;;;5076380;28;20457;-81
2023/04/08 12:54:14;;;;;;;3.50;2.73;;;12.10;99.90;;;;;;5075995;28;20459;-81
2023/04/08 12:56:42;;;;;;;4.97;2.87;;;11.90;99.90;;;;;;5076307;28;20507;-81